Salaberry-De-Valleyfield, Canada
Current Conditions -  °F | °C
As of 1:00 AM on Tuesday 21 Oct 2014 (Local Time) from CYUL Reporting Station
Rain Showers Rain Showers  
Wind Chill: 39°   Ceiling: 5500
Heat Index: 43°   Visibility: 15mi
Dew Point: 39°   Wind: 7mph
Humidity: 87%   Direction: 40°NE
Pressure: 29.94"   Gusts: NA
Location:  45.25°N, 74.13°W
Report Text: CYUL 210500Z 04006KT 15SM -SHRA BKN055 OVC080 06/04 A2994 RMK SC6AC2 SLP140
Loading
Personal Weather Stations






























Interactive Weather Map
Tropical Storm Tracking
New forecast layout! Learn more

10-Day Weather Forecast

Advertisements
Track Severe Weather on mobile